Time;durP1;ratioP1;P1;durP2;ratioP2;P2;SDS_P1;SDS_P2;PMS_P1;PMS_P2;Temp;Humidity;BMP_temperature;BMP_pressure;BME280_temperature;BME280_humidity;BME280_pressure;Samples;Min_cycle;Max_cycle;Signal;HPM_P1;HPM_P2
2021/03/02 00:01:45;;;;;;;20.23;17.00;;;3.90;99.90;;;;;;5123678;27;20412;-66
2021/03/02 00:04:11;;;;;;;17.97;16.03;;;3.90;99.90;;;;;;5110954;28;20376;-66
2021/03/02 00:06:38;;;;;;;20.53;17.57;;;3.90;99.90;;;;;;5110957;28;20441;-66
2021/03/02 00:09:03;;;;;;;20.17;16.03;;;3.90;99.90;;;;;;5110716;28;20150;-66
2021/03/02 00:11:29;;;;;;;17.70;15.80;;;3.80;99.90;;;;;;5110642;28;20433;-66
2021/03/02 00:13:54;;;;;;;16.93;15.13;;;3.80;99.90;;;;;;5110614;28;20538;-66
2021/03/02 00:16:24;;;;;;;18.30;16.37;;;3.80;99.90;;;;;;5110560;28;20233;-66
2021/03/02 00:18:55;;;;;;;18.40;15.00;;;3.70;99.90;;;;;;5111184;28;20216;-66
2021/03/02 00:21:28;;;;;;;19.07;16.27;;;3.70;99.90;;;;;;5110392;28;20392;-66
2021/03/02 00:23:57;;;;;;;16.00;14.40;;;3.70;99.90;;;;;;5110317;28;20759;-66
2021/03/02 00:26:27;;;;;;;17.23;15.17;;;3.70;99.90;;;;;;5110373;28;20414;-66
2021/03/02 00:29:00;;;;;;;18.80;16.60;;;3.60;99.90;;;;;;5110110;28;20421;-66
2021/03/02 00:31:26;;;;;;;18.97;14.80;;;3.60;99.90;;;;;;5110115;28;20940;-66
2021/03/02 00:33:52;;;;;;;20.03;16.17;;;3.60;99.90;;;;;;5109989;28;20523;-66
2021/03/02 00:36:17;;;;;;;16.37;14.60;;;3.60;99.90;;;;;;5110512;28;20226;-66
2021/03/02 00:38:43;;;;;;;15.03;13.20;;;3.60;99.90;;;;;;5109965;28;20556;-66
2021/03/02 00:41:08;;;;;;;15.97;14.30;;;3.60;99.90;;;;;;5110266;28;20154;-66
2021/03/02 00:43:34;;;;;;;18.73;13.60;;;3.60;99.90;;;;;;5109805;28;20158;-65
2021/03/02 00:46:00;;;;;;;16.23;14.53;;;3.60;99.90;;;;;;5128502;28;20265;-66
2021/03/02 00:48:25;;;;;;;18.30;14.40;;;3.60;99.90;;;;;;5130822;27;20444;-66
2021/03/02 00:50:51;;;;;;;14.90;13.30;;;3.50;99.90;;;;;;5130440;27;20157;-65
2021/03/02 00:53:16;;;;;;;19.30;15.63;;;3.50;99.90;;;;;;5129364;27;20201;-66
2021/03/02 00:55:42;;;;;;;15.43;13.90;;;3.50;99.90;;;;;;5128894;28;20157;-66
2021/03/02 00:58:07;;;;;;;15.87;14.20;;;3.50;99.90;;;;;;5130108;27;20518;-66
2021/03/02 01:00:33;;;;;;;14.63;13.13;;;3.50;99.90;;;;;;5130178;27;20175;-66
2021/03/02 01:02:59;;;;;;;17.70;13.80;;;3.50;99.90;;;;;;5130079;27;20165;-66
2021/03/02 01:05:24;;;;;;;19.10;15.37;;;3.40;99.90;;;;;;5118682;27;20241;-66
2021/03/02 01:07:50;;;;;;;15.93;14.23;;;3.40;99.90;;;;;;5116205;27;20515;-66
2021/03/02 01:10:16;;;;;;;15.20;13.63;;;3.40;99.90;;;;;;5115503;28;20180;-66
2021/03/02 01:12:41;;;;;;;14.80;13.20;;;3.40;99.90;;;;;;5116324;28;20177;-66
2021/03/02 01:15:08;;;;;;;17.07;15.20;;;3.40;99.90;;;;;;5116207;28;20872;-66
2021/03/02 01:17:35;;;;;;;16.33;13.13;;;3.40;99.90;;;;;;5116120;28;20154;-66
2021/03/02 01:20:00;;;;;;;16.40;14.57;;;3.40;99.90;;;;;;5115005;28;20384;-66
2021/03/02 01:22:26;;;;;;;16.70;14.70;;;3.40;99.90;;;;;;5115929;28;20406;-66
2021/03/02 01:24:51;;;;;;;18.20;14.70;;;3.40;99.90;;;;;;5116023;28;20610;-65
2021/03/02 01:27:17;;;;;;;16.73;14.73;;;3.40;99.90;;;;;;5115427;28;20178;-66
2021/03/02 01:29:43;;;;;;;17.20;14.80;;;3.40;99.90;;;;;;5115997;28;20623;-66
2021/03/02 01:32:08;;;;;;;20.60;15.60;;;3.40;99.90;;;;;;5115736;28;20150;-66
2021/03/02 01:34:34;;;;;;;19.50;15.07;;;3.40;99.90;;;;;;5115851;28;20607;-65
2021/03/02 01:37:00;;;;;;;17.90;15.17;;;3.40;99.90;;;;;;5115736;28;20654;-66
2021/03/02 01:39:26;;;;;;;19.00;15.20;;;3.30;99.90;;;;;;5115651;27;20150;-65
2021/03/02 01:41:54;;;;;;;21.57;15.30;;;3.30;99.90;;;;;;5115750;28;20383;-66
2021/03/02 01:44:20;;;;;;;16.80;13.77;;;3.30;99.90;;;;;;5106344;28;20178;-72
2021/03/02 01:46:49;;;;;;;18.40;15.27;;;3.30;99.90;;;;;;5115766;28;20427;-67
2021/03/02 01:49:15;;;;;;;15.67;13.23;;;3.30;99.90;;;;;;5115523;28;20416;-66
2021/03/02 01:51:40;;;;;;;18.13;13.87;;;3.30;99.90;;;;;;5115334;28;20473;-66
2021/03/02 01:54:06;;;;;;;16.63;13.57;;;3.20;99.90;;;;;;5115106;28;20938;-66
2021/03/02 01:56:32;;;;;;;17.50;12.90;;;3.20;99.90;;;;;;5115329;27;20193;-66
2021/03/02 01:58:58;;;;;;;18.33;13.33;;;3.20;99.90;;;;;;5115579;28;20179;-66
2021/03/02 02:01:23;;;;;;;13.90;12.40;;;3.20;99.90;;;;;;5114492;27;20177;-66
2021/03/02 02:06:57;;;;;;;16.93;13.90;;;3.20;99.90;;;;;;5131367;27;20507;-66
2021/03/02 02:12:22;;;;;;;15.87;12.30;;;3.10;99.90;;;;;;5152168;27;20503;-66
2021/03/02 02:14:54;;;;;;;16.30;13.70;;;3.10;99.90;;;;;;5134370;27;20386;-66
2021/03/02 02:20:03;;;;;;;21.57;16.37;;;3.10;99.90;;;;;;5110930;27;20520;-66
2021/03/02 02:27:57;;;;;;;16.63;14.83;;;3.10;99.90;;;;;;5131749;27;20910;-66
2021/03/02 02:30:24;;;;;;;18.77;14.23;;;3.10;99.90;;;;;;5131340;28;20462;-66
2021/03/02 02:32:52;;;;;;;16.83;14.10;;;3.10;99.90;;;;;;5131130;28;20827;-66
2021/03/02 02:35:20;;;;;;;18.50;13.97;;;3.00;99.90;;;;;;5118993;28;20414;-66
2021/03/02 02:37:48;;;;;;;19.30;13.90;;;3.00;99.90;;;;;;5111126;28;20384;-66
2021/03/02 02:40:15;;;;;;;15.57;13.40;;;3.00;99.90;;;;;;5110765;28;20398;-66
2021/03/02 02:42:44;;;;;;;23.77;14.50;;;3.00;99.90;;;;;;5110758;28;20384;-66
2021/03/02 02:45:11;;;;;;;18.50;13.60;;;3.10;99.90;;;;;;5130139;28;20486;-66
2021/03/02 02:47:37;;;;;;;12.20;10.87;;;3.00;99.90;;;;;;5130964;27;20477;-66
2021/03/02 02:50:05;;;;;;;14.90;12.40;;;3.00;99.90;;;;;;5130982;27;20386;-66
2021/03/02 02:52:31;;;;;;;16.53;12.50;;;3.00;99.90;;;;;;5129965;27;20414;-66
2021/03/02 02:54:58;;;;;;;15.97;12.77;;;3.00;99.90;;;;;;5131089;27;20482;-66
2021/03/02 02:57:27;;;;;;;16.37;11.37;;;3.00;99.90;;;;;;5130754;27;20390;-66
2021/03/02 02:59:54;;;;;;;13.13;11.73;;;3.00;99.90;;;;;;5129575;28;20395;-66
2021/03/02 03:02:23;;;;;;;14.10;12.17;;;3.00;99.90;;;;;;5130604;27;20398;-66
2021/03/02 03:04:54;;;;;;;13.60;11.80;;;3.00;99.90;;;;;;5129377;27;20894;-66
2021/03/02 03:07:25;;;;;;;12.70;11.00;;;3.00;99.90;;;;;;5129095;27;20443;-66
2021/03/02 03:09:53;;;;;;;13.37;11.97;;;3.00;99.90;;;;;;5127967;27;20410;-66
2021/03/02 03:12:22;;;;;;;13.37;10.43;;;3.00;99.90;;;;;;5128601;27;20391;-67
2021/03/02 03:14:53;;;;;;;15.00;10.83;;;3.00;99.90;;;;;;5129005;27;20384;-66
2021/03/02 03:17:20;;;;;;;13.70;10.77;;;3.00;99.90;;;;;;5130419;27;20390;-66
2021/03/02 03:19:46;;;;;;;12.93;10.00;;;3.00;99.90;;;;;;5130722;27;20731;-66
2021/03/02 03:22:15;;;;;;;13.27;11.17;;;3.00;99.90;;;;;;5130566;27;20458;-66
2021/03/02 03:24:40;;;;;;;15.70;11.20;;;3.00;99.90;;;;;;5130987;27;20398;-65
2021/03/02 03:27:07;;;;;;;13.60;10.57;;;3.00;99.90;;;;;;5129272;28;20810;-66
2021/03/02 03:29:33;;;;;;;16.13;11.07;;;3.00;99.90;;;;;;5130152;27;20158;-66
2021/03/02 03:32:00;;;;;;;14.87;12.47;;;3.00;99.90;;;;;;5130140;27;20399;-65
2021/03/02 03:34:27;;;;;;;14.73;11.77;;;2.90;99.90;;;;;;5130251;27;20387;-66
2021/03/02 03:36:54;;;;;;;13.80;11.47;;;3.00;99.90;;;;;;5130479;27;20431;-66
2021/03/02 03:39:19;;;;;;;13.60;12.10;;;3.00;99.90;;;;;;5116368;27;20406;-65
2021/03/02 03:41:45;;;;;;;13.87;12.33;;;3.00;99.90;;;;;;5116276;28;20489;-65
2021/03/02 03:44:11;;;;;;;12.70;10.40;;;2.90;99.90;;;;;;5115293;28;20677;-65
2021/03/02 03:46:36;;;;;;;13.03;10.57;;;2.90;99.90;;;;;;5116198;28;20564;-65
2021/03/02 03:49:02;;;;;;;11.20;9.67;;;2.90;99.90;;;;;;5116449;28;20190;-65
2021/03/02 03:51:30;;;;;;;10.00;8.97;;;2.90;99.90;;;;;;5116501;28;20158;-64
2021/03/02 03:53:57;;;;;;;14.70;11.40;;;2.90;99.90;;;;;;5116085;28;20161;-64
2021/03/02 03:56:23;;;;;;;15.70;10.10;;;2.90;99.90;;;;;;5116120;28;20392;-64
2021/03/02 03:58:50;;;;;;;11.70;9.53;;;2.90;99.90;;;;;;5115584;28;20388;-64
2021/03/02 04:01:15;;;;;;;11.83;9.97;;;2.90;99.90;;;;;;5115379;28;20411;-64
2021/03/02 04:03:41;;;;;;;11.73;9.60;;;2.80;99.90;;;;;;5116213;28;20873;-65
2021/03/02 04:06:07;;;;;;;11.07;9.50;;;2.80;99.90;;;;;;5114579;28;20612;-65
2021/03/02 04:08:33;;;;;;;11.90;9.63;;;2.80;99.90;;;;;;5116234;28;20218;-65
2021/03/02 04:11:01;;;;;;;10.83;9.20;;;2.80;99.90;;;;;;5114534;28;20395;-65
2021/03/02 04:13:27;;;;;;;15.60;10.27;;;2.80;99.90;;;;;;5115642;28;20887;-65
2021/03/02 04:15:53;;;;;;;11.80;9.83;;;2.80;99.90;;;;;;5113828;28;20463;-65
2021/03/02 04:18:18;;;;;;;12.10;9.87;;;2.80;99.90;;;;;;5115815;28;20556;-65
2021/03/02 04:20:47;;;;;;;11.20;9.40;;;2.80;99.90;;;;;;5114377;28;20492;-65
2021/03/02 04:23:12;;;;;;;14.07;9.50;;;2.80;99.90;;;;;;5115606;28;20185;-65
2021/03/02 04:25:38;;;;;;;10.87;9.77;;;2.80;99.90;;;;;;5115434;28;20480;-65
2021/03/02 04:28:05;;;;;;;13.77;10.93;;;2.80;99.90;;;;;;5115331;28;20154;-65
2021/03/02 04:30:32;;;;;;;13.57;10.90;;;2.80;99.90;;;;;;5115298;28;20154;-65
2021/03/02 04:32:57;;;;;;;14.90;11.20;;;2.80;99.90;;;;;;5114633;28;20391;-65
2021/03/02 04:35:23;;;;;;;16.73;9.30;;;2.80;99.90;;;;;;5115403;28;20396;-65
2021/03/02 04:37:49;;;;;;;20.03;10.57;;;2.80;99.90;;;;;;5114213;28;20641;-65
2021/03/02 04:40:15;;;;;;;11.30;9.23;;;2.80;99.90;;;;;;5115167;28;20150;-64
2021/03/02 04:42:42;;;;;;;14.90;10.90;;;2.80;99.90;;;;;;5115292;28;20662;-65
2021/03/02 04:45:09;;;;;;;12.47;10.20;;;2.80;99.90;;;;;;5115382;28;20780;-65
2021/03/02 04:47:36;;;;;;;13.37;11.07;;;2.80;99.90;;;;;;5115005;28;20584;-65
2021/03/02 04:50:03;;;;;;;12.17;10.30;;;2.80;99.90;;;;;;5113028;28;20388;-65
2021/03/02 04:52:29;;;;;;;13.03;10.70;;;2.80;99.90;;;;;;5114933;28;20441;-65
2021/03/02 04:54:55;;;;;;;14.20;10.97;;;2.80;99.90;;;;;;5114991;28;20384;-65
2021/03/02 04:57:21;;;;;;;14.83;11.10;;;2.80;99.90;;;;;;5115115;28;20169;-64
2021/03/02 04:59:46;;;;;;;12.40;10.20;;;2.80;99.90;;;;;;5115169;28;20392;-64
2021/03/02 05:02:12;;;;;;;15.40;11.10;;;2.70;99.90;;;;;;5114757;28;20522;-64
2021/03/02 05:04:37;;;;;;;11.77;10.57;;;2.70;99.90;;;;;;5114889;28;20638;-65
2021/03/02 05:07:03;;;;;;;13.23;11.83;;;2.70;99.90;;;;;;5113802;28;20189;-65
2021/03/02 05:09:28;;;;;;;13.73;10.73;;;2.70;99.90;;;;;;5113266;28;20162;-65
2021/03/02 05:11:54;;;;;;;13.30;10.47;;;2.70;99.90;;;;;;5114775;28;20521;-65
2021/03/02 05:14:20;;;;;;;12.60;10.10;;;2.80;99.90;;;;;;5114408;28;20173;-65
2021/03/02 05:16:45;;;;;;;11.67;9.50;;;2.70;99.90;;;;;;5114357;28;20158;-65
2021/03/02 05:19:11;;;;;;;14.53;10.60;;;2.80;99.90;;;;;;5114611;28;20179;-65
2021/03/02 05:21:36;;;;;;;10.73;8.60;;;2.70;99.90;;;;;;5114352;28;20158;-65
2021/03/02 05:24:02;;;;;;;9.10;8.20;;;2.70;99.90;;;;;;5113431;28;20158;-65
2021/03/02 05:26:27;;;;;;;10.90;8.50;;;2.70;99.90;;;;;;5114250;28;20232;-64
2021/03/02 05:28:53;;;;;;;13.93;10.43;;;2.70;99.90;;;;;;5114160;28;20603;-64
2021/03/02 05:31:19;;;;;;;19.00;11.73;;;2.70;99.90;;;;;;5114111;27;20158;-65
2021/03/02 05:33:44;;;;;;;15.10;11.20;;;2.70;99.90;;;;;;5114165;28;20154;-65
2021/03/02 05:36:10;;;;;;;15.63;11.23;;;2.70;99.90;;;;;;5114060;28;20162;-65
2021/03/02 05:38:35;;;;;;;11.83;9.80;;;2.70;99.90;;;;;;5114373;28;20162;-65
2021/03/02 05:41:03;;;;;;;10.77;8.77;;;2.70;99.90;;;;;;5113391;28;20161;-65
2021/03/02 05:43:30;;;;;;;12.00;10.00;;;2.70;99.90;;;;;;5112744;28;20197;-65
2021/03/02 05:45:56;;;;;;;13.27;9.90;;;2.70;99.90;;;;;;5113763;28;20818;-65
2021/03/02 05:48:25;;;;;;;12.13;10.30;;;2.70;99.90;;;;;;5113900;28;20388;-65
2021/03/02 05:50:54;;;;;;;12.17;9.30;;;2.80;99.90;;;;;;5113755;28;20403;-65
2021/03/02 05:53:19;;;;;;;11.80;10.60;;;2.70;99.90;;;;;;5114190;28;20376;-65
2021/03/02 05:55:45;;;;;;;11.77;9.60;;;2.70;99.90;;;;;;5113890;28;20399;-65
2021/03/02 05:58:13;;;;;;;13.83;8.80;;;2.70;99.90;;;;;;5113081;28;20190;-65
2021/03/02 06:00:39;;;;;;;11.33;9.77;;;2.80;99.90;;;;;;5113412;28;20399;-65
2021/03/02 06:03:04;;;;;;;12.07;9.07;;;2.70;99.90;;;;;;5113899;28;20388;-65
2021/03/02 06:05:30;;;;;;;10.90;9.07;;;2.80;99.90;;;;;;5113947;28;20154;-65
2021/03/02 06:07:56;;;;;;;8.93;8.03;;;2.70;99.90;;;;;;5113693;28;20436;-65
2021/03/02 06:10:28;;;;;;;11.60;8.90;;;2.70;99.90;;;;;;5113711;28;20165;-65
2021/03/02 06:12:56;;;;;;;11.20;9.53;;;2.80;99.90;;;;;;5113702;28;20338;-65
2021/03/02 06:15:23;;;;;;;11.80;9.90;;;2.80;99.90;;;;;;5112867;28;20491;-65
2021/03/02 06:18:08;;;;;;;12.27;9.13;;;2.80;99.90;;;;;;5112633;28;20479;-65
2021/03/02 06:20:34;;;;;;;12.20;9.83;;;2.80;99.90;;;;;;5113756;28;20392;-65
2021/03/02 06:23:33;;;;;;;13.53;9.80;;;2.80;99.90;;;;;;5113716;28;20395;-65
2021/03/02 06:26:27;;;;;;;13.10;9.67;;;2.80;99.90;;;;;;5113395;28;20800;-65
2021/03/02 06:28:56;;;;;;;11.07;9.40;;;2.80;99.90;;;;;;5113681;28;20388;-65
2021/03/02 06:31:42;;;;;;;13.03;10.13;;;2.90;99.90;;;;;;5112666;28;20440;-65
2021/03/02 06:34:18;;;;;;;12.73;9.97;;;2.90;99.90;;;;;;5112645;28;20411;-65
2021/03/02 06:36:59;;;;;;;11.50;10.00;;;2.90;99.90;;;;;;5113566;28;20410;-65
2021/03/02 06:42:11;;;;;;;13.47;10.13;;;2.90;99.90;;;;;;5130044;27;20557;-65
2021/03/02 06:44:37;;;;;;;12.20;10.00;;;3.00;99.90;;;;;;5131421;27;20755;-64
2021/03/02 06:47:03;;;;;;;13.97;9.83;;;3.00;99.90;;;;;;5131338;27;20407;-64
2021/03/02 06:49:46;;;;;;;11.93;10.63;;;3.00;99.90;;;;;;5124964;28;20482;-64
2021/03/02 06:52:19;;;;;;;13.77;10.07;;;3.10;99.90;;;;;;5109629;28;20173;-64
2021/03/02 06:54:47;;;;;;;16.50;10.33;;;3.10;99.90;;;;;;5110639;28;20388;-66
2021/03/02 06:57:20;;;;;;;13.83;10.53;;;3.20;99.90;;;;;;5109377;28;20952;-64
2021/03/02 06:59:56;;;;;;;25.90;10.70;;;3.20;99.90;;;;;;5110902;28;20412;-64
2021/03/02 07:02:43;;;;;;;12.40;10.00;;;3.30;99.90;;;;;;5110652;28;20427;-64
2021/03/02 07:07:54;;;;;;;12.87;9.47;;;3.40;99.90;;;;;;5114801;27;20505;-64
2021/03/02 07:10:21;;;;;;;17.10;10.87;;;3.50;99.90;;;;;;5110934;28;20388;-64
2021/03/02 07:12:47;;;;;;;14.77;10.87;;;3.60;99.90;;;;;;5111054;28;20384;-64
2021/03/02 07:15:17;;;;;;;17.57;12.63;;;3.60;99.90;;;;;;5109563;28;20384;-64
2021/03/02 07:17:44;;;;;;;41.07;18.20;;;3.70;99.90;;;;;;5110987;28;20165;-64
2021/03/02 07:20:11;;;;;;;33.80;17.57;;;3.70;99.90;;;;;;5109619;28;20513;-64
2021/03/02 07:22:39;;;;;;;23.00;14.60;;;3.80;99.90;;;;;;5110782;28;20397;-65
2021/03/02 07:25:09;;;;;;;82.00;27.00;;;3.90;99.90;;;;;;5110598;28;20916;-65
2021/03/02 07:27:41;;;;;;;39.10;18.83;;;3.90;99.90;;;;;;5110994;28;20442;-64
2021/03/02 07:30:10;;;;;;;35.67;17.10;;;4.00;99.90;;;;;;5110562;28;20385;-64
2021/03/02 07:32:36;;;;;;;24.97;13.77;;;4.10;99.90;;;;;;5110547;28;20384;-64
2021/03/02 07:35:02;;;;;;;28.17;14.57;;;4.20;99.90;;;;;;5110520;28;20724;-64
2021/03/02 07:37:28;;;;;;;17.60;13.70;;;4.20;99.90;;;;;;5110488;28;20389;-64
2021/03/02 07:40:12;;;;;;;22.23;13.30;;;4.30;99.90;;;;;;5110465;28;20605;-64
2021/03/02 07:42:38;;;;;;;24.90;14.53;;;4.40;99.90;;;;;;5109306;28;20155;-64
2021/03/02 07:47:44;;;;;;;29.50;16.87;;;4.40;99.90;;;;;;5111132;27;20510;-64
2021/03/02 07:50:34;;;;;;;23.10;16.07;;;4.60;99.90;;;;;;5111182;28;20398;-64
2021/03/02 07:53:20;;;;;;;27.20;15.33;;;4.70;99.90;;;;;;5111066;28;20391;-64
2021/03/02 07:55:48;;;;;;;23.63;12.80;;;4.80;99.90;;;;;;5109996;28;20461;-64
2021/03/02 07:58:18;;;;;;;23.47;12.93;;;4.90;99.90;;;;;;5099222;28;20910;-64
2021/03/02 08:00:45;;;;;;;25.77;13.30;;;5.00;99.90;;;;;;5090449;28;20391;-64
2021/03/02 08:05:56;;;;;;;22.70;14.00;;;5.10;99.90;;;;;;5111179;27;20520;-65
2021/03/02 08:11:02;;;;;;;19.80;13.10;;;5.20;99.90;;;;;;5110995;27;20505;-64
2021/03/02 08:16:09;;;;;;;21.13;12.70;;;5.40;99.90;;;;;;5091652;27;20513;-64
2021/03/02 08:18:37;;;;;;;15.03;10.93;;;5.50;99.90;;;;;;5090791;28;20470;-64
2021/03/02 08:23:51;;;;;;;18.50;11.40;;;5.80;99.90;;;;;;5105276;27;20525;-64
2021/03/02 08:26:36;;;;;;;16.47;9.47;;;6.00;99.90;;;;;;5072176;28;20829;-64
2021/03/02 08:31:42;;;;;;;12.50;8.83;;;6.20;99.90;;;;;;5084095;28;20519;-63
2021/03/02 08:34:09;;;;;;;13.67;9.10;;;6.50;99.90;;;;;;5070578;28;20395;-66
2021/03/02 08:36:36;;;;;;;14.57;9.60;;;6.60;99.90;;;;;;5070365;28;20387;-64
2021/03/02 08:39:08;;;;;;;11.27;9.37;;;6.80;99.90;;;;;;5070288;28;20392;-66
2021/03/02 08:41:36;;;;;;;13.43;9.40;;;6.90;99.90;;;;;;5070330;28;20403;-64
2021/03/02 08:44:03;;;;;;;11.90;9.03;;;7.10;99.90;;;;;;5070359;28;20412;-64
2021/03/02 08:46:31;;;;;;;11.60;8.47;;;7.20;99.90;;;;;;5069072;28;20431;-63
2021/03/02 08:48:56;;;;;;;9.90;8.63;;;7.40;99.90;;;;;;5070236;28;20410;-63
2021/03/02 08:51:23;;;;;;;13.50;10.97;;;7.60;99.90;;;;;;5069986;28;20436;-63
2021/03/02 08:53:50;;;;;;;10.40;8.57;;;7.80;99.90;;;;;;5068929;28;20155;-64
2021/03/02 08:56:25;;;;;;;14.70;9.27;;;7.90;99.90;;;;;;5069008;28;20853;-63
2021/03/02 09:01:28;;;;;;;12.83;10.13;;;8.00;99.90;;;;;;5090735;27;20514;-66
2021/03/02 09:04:06;;;;;;;12.50;9.37;;;8.00;99.90;;;;;;5090501;28;20391;-64
2021/03/02 09:06:32;;;;;;;12.03;8.63;;;8.00;99.90;;;;;;5075420;28;20408;-66
2021/03/02 09:09:00;;;;;;;13.00;9.47;;;8.00;99.90;;;;;;5070339;28;20427;-66
2021/03/02 09:11:29;;;;;;;11.90;9.50;;;8.00;99.90;;;;;;5068890;28;20171;-63
2021/03/02 09:13:57;;;;;;;13.00;8.60;;;8.10;99.90;;;;;;5070444;28;20386;-64
2021/03/02 09:16:26;;;;;;;12.70;8.23;;;8.20;99.90;;;;;;5068884;28;20472;-66
2021/03/02 09:19:01;;;;;;;13.23;9.20;;;8.40;99.90;;;;;;5070035;28;20805;-64
2021/03/02 09:21:26;;;;;;;12.10;8.00;;;8.60;99.90;;;;;;5070222;28;20397;-64
2021/03/02 09:23:52;;;;;;;11.10;8.03;;;8.90;99.90;;;;;;5086334;28;20408;-65
2021/03/02 09:26:20;;;;;;;11.57;8.60;;;9.20;99.90;;;;;;5090475;28;20148;-65
2021/03/02 09:28:54;;;;;;;11.13;8.37;;;9.40;99.90;;;;;;5090368;28;20163;-65
2021/03/02 09:31:20;;;;;;;9.37;7.23;;;9.60;99.90;;;;;;5090021;28;20386;-64
2021/03/02 09:33:48;;;;;;;11.73;8.43;;;9.80;99.90;;;;;;5089035;28;20383;-64
2021/03/02 09:36:13;;;;;;;10.60;8.57;;;9.80;99.90;;;;;;5089941;28;20436;-64
2021/03/02 09:38:39;;;;;;;12.37;8.70;;;9.90;99.90;;;;;;5089928;28;20786;-64
2021/03/02 09:41:04;;;;;;;9.73;8.00;;;10.00;99.90;;;;;;5089242;28;20200;-64
2021/03/02 09:43:35;;;;;;;9.93;8.70;;;10.00;99.90;;;;;;5090211;28;20231;-64
2021/03/02 09:46:00;;;;;;;11.57;9.23;;;10.10;99.90;;;;;;5089986;28;20241;-64
2021/03/02 09:48:26;;;;;;;11.10;8.20;;;10.20;99.90;;;;;;5089735;28;20392;-64
2021/03/02 09:50:51;;;;;;;10.87;8.30;;;10.30;99.90;;;;;;5089717;28;20269;-64
2021/03/02 09:53:17;;;;;;;12.03;8.43;;;10.30;99.90;;;;;;5089755;28;20573;-64
2021/03/02 09:55:45;;;;;;;10.60;8.77;;;10.30;99.90;;;;;;5088458;28;20171;-64
2021/03/02 10:00:55;;;;;;;11.90;9.10;;;10.40;99.90;;;;;;5110890;27;20519;-64
2021/03/02 10:05:58;;;;;;;8.53;7.60;;;10.60;99.90;;;;;;5131408;27;20911;-65
2021/03/02 10:13:52;;;;;;;11.07;7.23;;;11.00;99.90;;;;;;5102886;27;20525;-64
2021/03/02 10:16:24;;;;;;;11.63;7.20;;;11.30;99.90;;;;;;5090633;28;20389;-64
2021/03/02 10:24:04;;;;;;;9.67;6.80;;;11.50;99.90;;;;;;5090514;28;20503;-64
2021/03/02 10:26:33;;;;;;;9.13;6.60;;;11.60;99.90;;;;;;5090554;28;20389;-64
2021/03/02 10:28:59;;;;;;;8.60;7.00;;;11.70;99.90;;;;;;5090404;28;20242;-64
2021/03/02 10:31:26;;;;;;;9.70;7.17;;;11.70;99.90;;;;;;5076150;28;20483;-64
2021/03/02 10:33:52;;;;;;;10.60;7.17;;;11.80;99.90;;;;;;5070126;28;20397;-64
2021/03/02 10:36:20;;;;;;;9.23;7.10;;;11.80;99.90;;;;;;5069091;28;20402;-64
2021/03/02 10:38:46;;;;;;;6.50;5.37;;;11.80;99.30;;;;;;5068847;28;20588;-64
2021/03/02 10:41:12;;;;;;;10.50;7.27;;;12.00;97.70;;;;;;5070086;28;20426;-64
2021/03/02 10:43:37;;;;;;;6.93;5.37;;;12.10;97.00;;;;;;5069838;28;20445;-64
2021/03/02 10:46:03;;;;;;;6.33;4.53;;;12.20;96.00;;;;;;5070083;28;20191;-64
2021/03/02 10:48:29;;;;;;;7.90;5.57;;;12.20;94.80;;;;;;5069374;28;20233;-64
2021/03/02 10:50:54;;;;;;;8.20;5.97;;;12.30;94.70;;;;;;5069954;28;20160;-64
2021/03/02 10:53:19;;;;;;;8.07;6.00;;;12.30;96.50;;;;;;5070056;28;20160;-64
2021/03/02 10:55:45;;;;;;;11.00;7.43;;;12.30;94.70;;;;;;5069712;28;20163;-64
2021/03/02 10:58:11;;;;;;;10.23;7.77;;;12.40;94.20;;;;;;5069916;28;20171;-64
2021/03/02 11:00:36;;;;;;;7.90;5.77;;;12.40;95.10;;;;;;5069835;28;20159;-64
2021/03/02 11:03:03;;;;;;;6.63;5.33;;;12.30;94.60;;;;;;5069663;28;20188;-64
2021/03/02 11:05:28;;;;;;;8.53;6.67;;;12.30;93.50;;;;;;5068658;28;20221;-64
2021/03/02 11:07:54;;;;;;;7.83;5.90;;;12.30;93.40;;;;;;5069460;28;20395;-64
2021/03/02 11:10:20;;;;;;;6.40;5.50;;;12.40;93.30;;;;;;5069453;28;20156;-64
2021/03/02 11:12:45;;;;;;;8.30;5.70;;;12.40;93.70;;;;;;5069330;28;20156;-64
2021/03/02 11:15:12;;;;;;;8.10;5.80;;;12.30;94.50;;;;;;5069363;28;20247;-64
2021/03/02 11:17:38;;;;;;;5.97;4.90;;;12.20;93.70;;;;;;5069228;28;20179;-64
2021/03/02 11:20:05;;;;;;;6.50;5.20;;;12.20;95.50;;;;;;5068244;28;20398;-64
2021/03/02 11:22:31;;;;;;;8.63;5.63;;;12.10;95.30;;;;;;5061295;28;20458;-64
2021/03/02 11:24:56;;;;;;;6.67;5.00;;;12.20;93.30;;;;;;5069198;28;20405;-64
2021/03/02 11:27:22;;;;;;;6.63;5.50;;;12.30;91.50;;;;;;5069643;28;20163;-65
2021/03/02 11:29:47;;;;;;;7.83;5.80;;;12.50;91.00;;;;;;5069264;28;20175;-65
2021/03/02 11:32:13;;;;;;;8.93;6.47;;;12.50;90.80;;;;;;5069012;28;20175;-65
2021/03/02 11:34:39;;;;;;;8.80;5.33;;;12.70;89.90;;;;;;5060204;28;20643;-65
2021/03/02 11:37:05;;;;;;;8.03;5.90;;;12.70;88.10;;;;;;5055709;28;20480;-65
2021/03/02 11:39:30;;;;;;;8.13;6.17;;;12.70;87.60;;;;;;5054821;28;20267;-65
2021/03/02 11:41:56;;;;;;;7.00;5.90;;;12.70;87.50;;;;;;5055545;28;20156;-65
2021/03/02 11:44:21;;;;;;;8.40;5.93;;;12.70;87.20;;;;;;5055742;28;20609;-65
2021/03/02 11:46:47;;;;;;;7.07;5.63;;;12.80;86.10;;;;;;5055511;28;20198;-65
2021/03/02 11:49:13;;;;;;;8.40;5.93;;;12.90;84.70;;;;;;5054271;28;20685;-65
2021/03/02 11:51:39;;;;;;;9.50;6.40;;;13.00;84.40;;;;;;5055386;28;20474;-65
2021/03/02 11:54:05;;;;;;;12.50;8.13;;;13.10;83.50;;;;;;5055315;28;20426;-65
2021/03/02 11:56:30;;;;;;;10.97;8.07;;;13.00;82.20;;;;;;5054646;28;20176;-65
2021/03/02 11:58:56;;;;;;;8.03;6.97;;;13.10;80.50;;;;;;5055408;28;20398;-65
2021/03/02 12:01:21;;;;;;;7.07;6.33;;;13.10;83.30;;;;;;5055389;28;20149;-65
2021/03/02 12:03:47;;;;;;;11.03;7.00;;;13.00;80.80;;;;;;5055559;28;20622;-65
2021/03/02 12:06:12;;;;;;;9.83;6.27;;;13.10;81.50;;;;;;5055448;28;20179;-65
2021/03/02 12:08:38;;;;;;;13.17;7.00;;;13.00;83.70;;;;;;5055121;28;20149;-65
2021/03/02 12:11:04;;;;;;;7.90;6.70;;;13.00;81.00;;;;;;5055099;28;20156;-65
2021/03/02 12:13:29;;;;;;;8.10;6.67;;;13.10;81.70;;;;;;5054246;28;20180;-65
2021/03/02 12:15:55;;;;;;;8.07;6.00;;;13.00;82.70;;;;;;5054935;28;20187;-65
2021/03/02 12:18:21;;;;;;;9.43;6.40;;;13.20;80.80;;;;;;5054955;28;20524;-65
2021/03/02 12:20:47;;;;;;;10.23;6.77;;;13.20;81.10;;;;;;5053512;28;20398;-65
2021/03/02 12:23:13;;;;;;;9.57;6.93;;;13.20;81.90;;;;;;5034587;28;20986;-65
2021/03/02 12:25:38;;;;;;;9.33;7.23;;;13.20;81.20;;;;;;5034895;28;20260;-65
2021/03/02 12:28:04;;;;;;;11.00;6.70;;;13.20;81.00;;;;;;5034831;28;20207;-65
2021/03/02 12:30:30;;;;;;;9.63;7.30;;;13.10;82.00;;;;;;5035315;28;20434;-65
2021/03/02 12:32:56;;;;;;;10.00;7.07;;;13.10;82.50;;;;;;5034745;28;20391;-65
2021/03/02 12:35:22;;;;;;;10.73;5.60;;;13.10;80.90;;;;;;5033297;28;20169;-65
2021/03/02 12:37:48;;;;;;;9.97;7.13;;;13.10;80.80;;;;;;5034662;28;20399;-65
2021/03/02 12:40:14;;;;;;;9.93;6.60;;;13.00;82.00;;;;;;5034492;28;20395;-65
2021/03/02 12:42:40;;;;;;;11.40;7.40;;;13.00;81.10;;;;;;5033190;28;20235;-65
2021/03/02 12:45:06;;;;;;;12.70;7.07;;;13.00;81.60;;;;;;5032874;28;20392;-65
2021/03/02 12:47:32;;;;;;;8.53;6.30;;;12.90;82.10;;;;;;5034681;28;20439;-65
2021/03/02 12:49:57;;;;;;;11.03;7.67;;;12.90;79.50;;;;;;5034389;28;20778;-66
2021/03/02 12:52:23;;;;;;;9.30;7.57;;;13.00;81.40;;;;;;5034150;28;20161;-65
2021/03/02 12:54:49;;;;;;;9.50;6.87;;;13.00;77.10;;;;;;5034313;28;20157;-65
2021/03/02 12:57:14;;;;;;;8.70;6.17;;;13.10;76.80;;;;;;5033099;28;20165;-65
2021/03/02 12:59:40;;;;;;;10.57;6.83;;;13.00;80.70;;;;;;5034176;28;20164;-65
2021/03/02 13:02:08;;;;;;;11.13;7.33;;;13.00;77.00;;;;;;5034389;28;20200;-65
2021/03/02 13:04:34;;;;;;;12.33;9.33;;;13.00;77.10;;;;;;5034883;28;20656;-66
2021/03/02 13:06:59;;;;;;;12.97;9.10;;;13.10;78.00;;;;;;5034044;28;20400;-65
2021/03/02 13:09:25;;;;;;;11.17;8.17;;;13.00;80.60;;;;;;5034128;28;20236;-65
2021/03/02 13:11:51;;;;;;;10.60;7.63;;;12.90;84.00;;;;;;5033037;28;20162;-65
2021/03/02 13:14:17;;;;;;;10.03;7.13;;;12.70;88.00;;;;;;5032864;28;20231;-65
2021/03/02 13:16:43;;;;;;;10.73;7.70;;;12.60;86.10;;;;;;5033919;28;20161;-65
2021/03/02 13:19:10;;;;;;;8.70;7.43;;;12.50;90.00;;;;;;5032649;28;20477;-65
2021/03/02 13:21:37;;;;;;;10.63;7.37;;;12.40;91.60;;;;;;5033760;28;20950;-65
2021/03/02 13:24:03;;;;;;;9.30;6.37;;;12.20;93.00;;;;;;5032581;28;20439;-65
2021/03/02 13:26:32;;;;;;;8.30;5.57;;;12.40;83.80;;;;;;5034138;28;20387;-65
2021/03/02 13:29:07;;;;;;;9.60;6.40;;;12.60;77.60;;;;;;5032842;28;20792;-65
2021/03/02 13:31:35;;;;;;;10.57;7.70;;;12.70;79.20;;;;;;5033654;28;20739;-65
2021/03/02 13:34:07;;;;;;;12.67;7.07;;;12.60;84.10;;;;;;5033410;28;20772;-65
2021/03/02 13:36:33;;;;;;;13.20;6.43;;;12.50;87.70;;;;;;5032492;28;20396;-65